Time;durP1;ratioP1;P1;durP2;ratioP2;P2;SDS_P1;SDS_P2;PMS_P1;PMS_P2;Temp;Humidity;BMP_temperature;BMP_pressure;BME280_temperature;BME280_humidity;BME280_pressure;Samples;Min_cycle;Max_cycle;Signal;HPM_P1;HPM_P2
2023/03/14 00:07:58;;;;;;;13.95;3.22;;;;;;;21.42;39.38;100740.56;21074682;28;20095;-64
2023/03/14 00:18:00;;;;;;;17.05;3.05;;;;;;;21.42;39.13;100718.31;21067771;28;20077;-64
2023/03/14 00:28:01;;;;;;;14.40;2.95;;;;;;;21.67;39.30;100720.03;21072697;28;20078;-64
2023/03/14 00:38:03;;;;;;;13.38;3.25;;;;;;;21.85;39.36;100715.72;21054009;28;20163;-64
2023/03/14 00:48:04;;;;;;;10.98;2.70;;;;;;;22.02;38.85;100699.38;21041711;28;20040;-66
2023/03/14 00:58:06;;;;;;;7.55;2.95;;;;;;;22.23;38.78;100702.84;21049018;28;20109;-65
2023/03/14 01:08:11;;;;;;;8.95;2.20;;;;;;;22.40;38.71;100699.56;21044777;28;20036;-65
2023/03/14 01:18:15;;;;;;;5.25;2.40;;;;;;;22.55;38.64;100697.44;21074047;28;20048;-64
2023/03/14 01:28:17;;;;;;;8.43;2.20;;;;;;;22.70;38.53;100685.25;21064852;28;20048;-66
2023/03/14 01:38:18;;;;;;;5.88;1.77;;;;;;;22.86;38.22;100687.81;21067319;28;20048;-65
2023/03/14 01:48:20;;;;;;;11.52;3.47;;;;;;;22.74;35.90;100654.78;21069795;28;20044;-66
2023/03/14 01:58:22;;;;;;;4.20;2.20;;;;;;;22.65;36.02;100674.16;21070202;28;20052;-70
2023/03/14 02:08:24;;;;;;;3.30;1.83;;;;;;;22.57;36.59;100663.66;21072723;28;20040;-75
2023/03/14 02:18:26;;;;;;;8.13;2.25;;;;;;;22.48;36.53;100668.25;21067011;28;20457;-74
2023/03/14 02:28:28;;;;;;;7.47;2.60;;;;;;;22.38;36.88;100669.19;21087647;28;20032;-73
2023/03/14 02:38:58;;;;;;;8.80;2.33;;;;;;;22.36;37.16;100667.81;21080387;28;20101;-74
2023/03/14 02:49:07;;;;;;;12.65;2.35;;;;;;;22.18;37.63;100655.50;21080959;28;20032;-74
2023/03/14 02:59:08;;;;;;;5.57;2.38;;;;;;;22.24;37.71;100641.22;21073714;28;20403;-74
2023/03/14 03:09:09;;;;;;;5.97;2.33;;;;;;;;;;21085822;28;20027;-73
2023/03/14 03:19:13;;;;;;;7.45;2.72;;;;;;;22.12;37.82;100626.03;21089293;28;20042;-78
2023/03/14 03:29:14;;;;;;;8.70;2.50;;;;;;;22.13;37.93;100606.25;21073499;28;20035;-71
2023/03/14 03:39:16;;;;;;;7.15;3.00;;;;;;;21.95;37.76;100588.31;21085530;28;20403;-76
2023/03/14 03:49:17;;;;;;;6.93;1.98;;;;;;;22.02;37.67;100591.56;21082833;28;20047;-76
2023/03/14 03:59:18;;;;;;;13.10;2.55;;;;;;;22.00;40.36;100540.06;21078815;28;20372;-73
2023/03/14 04:09:20;;;;;;;8.80;2.53;;;;;;;22.19;37.95;100543.72;21076115;28;20040;-80
2023/03/14 04:19:21;;;;;;;9.15;2.78;;;;;;;22.35;37.88;100549.09;21066036;28;20445;-78
2023/03/14 04:29:23;;;;;;;12.10;2.63;;;;;;;22.35;38.87;100540.72;21071522;28;20081;-77
2023/03/14 04:39:24;;;;;;;4.70;2.53;;;;;;;22.38;37.61;100526.19;21046074;28;20044;-76
2023/03/14 04:49:25;;;;;;;6.07;2.75;;;;;;;22.33;37.22;100510.38;21076713;28;20101;-75
2023/03/14 04:59:27;;;;;;;3.67;2.38;;;;;;;22.38;36.96;100512.25;21076799;28;20040;-76
2023/03/14 05:09:30;;;;;;;5.97;2.30;;;;;;;22.32;36.59;100503.97;21075780;28;20452;-77
2023/03/14 05:19:32;;;;;;;5.22;2.22;;;;;;;22.32;36.19;100498.41;21073290;28;20105;-76
2023/03/14 05:29:36;;;;;;;5.32;2.40;;;;;;;22.28;35.83;100500.13;21072298;28;20044;-76
2023/03/14 05:39:37;;;;;;;2.33;2.08;;;;;;;22.17;35.75;100483.84;21074329;28;20073;-76
2023/03/14 05:49:39;;;;;;;2.45;2.10;;;;;;;22.17;35.42;100490.22;21067309;28;20376;-75
2023/03/14 05:59:40;;;;;;;3.90;2.45;;;;;;;21.99;35.53;100449.22;21079721;28;20117;-75
2023/03/14 06:09:42;;;;;;;3.25;2.45;;;;;;;22.16;35.01;100480.22;21063579;28;20067;-74
2023/03/14 06:19:43;;;;;;;2.45;2.20;;;;;;;22.03;35.11;100476.19;21077792;28;20399;-75
2023/03/14 06:29:44;;;;;;;2.75;2.10;;;;;;;22.06;34.58;100477.56;21079725;28;20043;-75
2023/03/14 06:39:46;;;;;;;3.53;2.22;;;;;;;22.03;34.53;100472.56;21080358;28;20152;-75
2023/03/14 06:49:47;;;;;;;2.33;1.90;;;;;;;21.93;34.81;100447.63;21085979;28;20036;-74
2023/03/14 06:59:50;;;;;;;2.17;1.90;;;;;;;21.98;34.47;100450.34;21086531;28;20109;-74
2023/03/14 07:09:54;;;;;;;1.83;1.63;;;;;;;21.94;34.48;100440.94;21079343;28;20036;-74
2023/03/14 07:19:56;;;;;;;2.55;2.35;;;;;;;21.91;34.21;100441.56;21080231;28;20039;-75
2023/03/14 07:29:57;;;;;;;1.80;1.70;;;;;;;21.85;33.86;100434.38;21071609;28;20016;-75
2023/03/14 07:39:58;;;;;;;1.90;1.70;;;;;;;21.78;34.07;100415.25;21078277;28;20036;-74
2023/03/14 07:50:00;;;;;;;1.92;1.80;;;;;;;21.76;34.08;100407.22;21078332;28;20093;-75
2023/03/14 08:00:02;;;;;;;2.63;2.22;;;;;;;21.77;33.97;100408.88;21077056;28;20102;-75
2023/03/14 08:10:05;;;;;;;2.22;1.75;;;;;;;21.65;34.13;100394.53;21078712;28;20028;-75
2023/03/14 08:20:11;;;;;;;2.10;1.85;;;;;;;21.71;34.07;100415.63;21073613;28;20043;-74
2023/03/14 08:30:15;;;;;;;2.10;1.90;;;;;;;21.70;34.17;100408.41;21074616;28;20028;-75
2023/03/14 08:40:17;;;;;;;1.50;1.40;;;;;;;21.69;33.75;100406.75;21074730;28;20074;-74
2023/03/14 08:50:23;;;;;;;1.45;1.35;;;;;;;21.69;33.55;100405.91;21066384;28;20032;-74
2023/03/14 09:00:24;;;;;;;1.67;1.50;;;;;;;21.65;33.71;100393.72;21074317;28;20046;-74
2023/03/14 09:10:26;;;;;;;2.50;1.42;;;;;;;21.56;33.54;100380.47;21073748;28;20043;-77
2023/03/14 09:20:27;;;;;;;1.38;1.27;;;;;;;21.46;33.74;100340.81;21072215;28;20104;-76
2023/03/14 09:30:32;;;;;;;1.27;1.17;;;;;;;21.70;33.53;100386.13;21046720;28;20040;-77
2023/03/14 09:40:38;;;;;;;1.20;1.10;;;;;;;21.63;33.65;100374.53;21091273;28;20479;-75
2023/03/14 09:50:52;;;;;;;1.15;0.98;;;;;;;21.68;33.62;100382.81;21051293;28;20040;-75
2023/03/14 10:00:56;;;;;;;1.08;0.98;;;;;;;21.66;33.34;100379.47;21091442;28;20036;-74
2023/03/14 10:10:59;;;;;;;0.82;0.82;;;;;;;21.65;33.40;100377.00;21090743;28;20032;-77
2023/03/14 10:21:20;;;;;;;1.00;1.00;;;;;;;21.58;33.59;100380.19;21074898;28;20051;-73
2023/03/14 10:31:28;;;;;;;1.02;1.00;;;;;;;21.53;33.52;100374.66;21082820;28;20036;-74
2023/03/14 10:41:33;;;;;;;1.27;0.90;;;;;;;21.61;33.63;100393.47;21079244;28;20082;-76
2023/03/14 10:51:34;;;;;;;2.13;1.20;;;;;;;21.58;35.82;100385.75;21080934;28;20096;-75
2023/03/14 11:01:38;;;;;;;6.13;1.48;;;;;;;21.58;35.31;100382.97;21081956;28;20035;-73
2023/03/14 11:11:47;;;;;;;5.38;1.30;;;;;;;21.52;34.98;100381.34;21082951;28;20044;-71
2023/03/14 11:22:09;;;;;;;6.40;1.30;;;;;;;21.55;34.63;100400.25;21083931;28;20047;-71
2023/03/14 11:32:23;;;;;;;2.15;1.40;;;;;;;21.51;34.92;100404.75;21080489;28;20548;-72
2023/03/14 11:42:26;;;;;;;2.50;1.45;;;;;;;21.47;34.93;100410.09;21081481;28;20040;-73
2023/03/14 11:52:44;;;;;;;4.75;1.50;;;;;;;21.40;34.72;100417.16;21076317;28;20047;-72
2023/03/14 12:03:09;;;;;;;2.50;1.30;;;;;;;21.37;34.75;100437.22;21080962;28;20056;-70
2023/03/14 12:13:12;;;;;;;1.40;1.30;;;;;;;21.33;34.65;100430.59;21079381;28;20047;-70
2023/03/14 12:23:16;;;;;;;3.97;1.50;;;;;;;21.23;35.06;100437.91;21079562;28;20031;-70
2023/03/14 12:33:17;;;;;;;1.67;1.35;;;;;;;21.16;34.94;100444.91;21077488;28;20603;-70
2023/03/14 12:43:28;;;;;;;2.00;1.50;;;;;;;21.05;35.27;100442.25;21075299;28;20556;-70
2023/03/14 12:53:52;;;;;;;1.40;1.23;;;;;;;20.88;35.14;100444.66;21076095;28;20074;-70
2023/03/14 13:04:02;;;;;;;1.92;1.40;;;;;;;20.99;34.99;100453.75;21076349;28;20036;-70
2023/03/14 13:14:10;;;;;;;2.35;1.73;;;;;;;20.64;35.33;100405.66;21076692;28;20086;-70
2023/03/14 13:24:25;;;;;;;4.13;1.42;;;;;;;20.91;35.35;100457.16;21076271;28;20040;-71
2023/03/14 13:34:32;;;;;;;6.25;2.17;;;;;;;21.02;35.99;100467.03;21075531;28;20085;-72
2023/03/14 13:44:40;;;;;;;9.27;2.20;;;;;;;21.08;38.03;100463.09;21072746;28;20105;-70
2023/03/14 13:54:42;;;;;;;10.57;2.92;;;;;;;21.09;38.54;100459.19;21073896;28;20486;-70
2023/03/14 14:04:43;;;;;;;10.85;2.80;;;;;;;21.04;37.79;100443.38;21073222;28;20051;-71
2023/03/14 14:14:58;;;;;;;6.93;2.20;;;;;;;20.99;37.38;100440.66;21077707;28;20047;-71
2023/03/14 14:25:01;;;;;;;6.65;2.17;;;;;;;21.01;36.63;100435.63;21088845;28;20040;-70
2023/03/14 14:35:03;;;;;;;6.15;1.85;;;;;;;20.97;36.72;100450.41;21088202;28;20487;-72
2023/03/14 14:45:12;;;;;;;4.00;2.20;;;;;;;20.93;36.32;100447.38;21087541;28;20055;-71
2023/03/14 14:55:19;;;;;;;3.20;1.90;;;;;;;20.81;36.29;100436.66;21087064;28;20032;-71
2023/03/14 15:05:23;;;;;;;2.97;2.05;;;;;;;20.88;35.86;100441.84;21085704;28;20040;-72
2023/03/14 15:15:24;;;;;;;3.78;1.60;;;;;;;20.83;35.72;100438.31;21085435;28;20036;-72
2023/03/14 15:25:28;;;;;;;3.28;1.85;;;;;;;20.79;35.97;100427.75;21083377;28;20552;-71
2023/03/14 15:35:29;;;;;;;2.38;1.73;;;;;;;20.80;35.62;100439.69;21084010;28;20391;-71
2023/03/14 15:45:34;;;;;;;2.63;2.00;;;;;;;20.77;35.20;100418.06;21082940;28;20110;-72
2023/03/14 15:55:35;;;;;;;2.33;1.85;;;;;;;20.71;35.72;100414.50;21082172;28;20032;-72
2023/03/14 16:05:36;;;;;;;1.95;1.50;;;;;;;20.62;35.27;100410.69;21081568;28;20387;-71
2023/03/14 16:15:41;;;;;;;2.53;1.60;;;;;;;20.54;35.69;100408.53;21081161;28;20592;-71
2023/03/14 16:25:44;;;;;;;1.73;1.60;;;;;;;20.34;35.59;100386.44;21079726;28;20368;-71
2023/03/14 16:36:00;;;;;;;3.00;1.70;;;;;;;20.50;35.56;100407.47;21078597;28;20043;-70
2023/03/14 16:46:04;;;;;;;1.60;1.50;;;;;;;20.43;35.23;100395.81;21078402;28;20040;-71
2023/03/14 16:56:09;;;;;;;2.75;1.35;;;;;;;20.66;34.83;100422.88;21077701;28;20396;-70
2023/03/14 17:06:13;;;;;;;1.40;1.30;;;;;;;20.60;34.88;100396.25;21076959;28;20399;-71
2023/03/14 17:16:14;;;;;;;0.90;0.90;;;;;;;20.74;34.82;100433.38;21076797;28;20479;-71
2023/03/14 17:26:17;;;;;;;3.17;1.02;;;;;;;20.78;34.51;100395.53;21075884;28;20044;-70
2023/03/14 17:36:19;;;;;;;1.08;0.95;;;;;;;20.82;34.26;100398.53;21075650;28;20044;-72
2023/03/14 17:46:20;;;;;;;1.00;1.00;;;;;;;20.83;34.14;100382.69;21074936;28;20403;-71
2023/03/14 17:56:21;;;;;;;0.82;0.80;;;;;;;20.79;34.45;100363.78;21090398;28;20036;-72
2023/03/14 18:06:23;;;;;;;0.80;0.70;;;;;;;20.93;33.86;100371.44;21090376;28;20051;-71
2023/03/14 18:16:24;;;;;;;0.77;0.70;;;;;;;20.92;34.02;100367.03;21090462;28;20035;-71
2023/03/14 18:26:32;;;;;;;0.70;0.70;;;;;;;20.93;34.01;100365.88;21089011;28;20040;-72
2023/03/14 18:36:33;;;;;;;0.68;0.68;;;;;;;21.00;33.87;100371.94;21088586;28;20044;-72
2023/03/14 18:46:34;;;;;;;1.08;0.60;;;;;;;20.98;33.73;100351.91;21087823;28;20524;-72
2023/03/14 18:56:37;;;;;;;1.15;0.70;;;;;;;20.88;33.41;100329.78;21086408;28;20438;-72
2023/03/14 19:06:40;;;;;;;0.70;0.63;;;;;;;20.98;33.58;100335.22;21085932;28;20040;-72
2023/03/14 19:16:41;;;;;;;0.68;0.68;;;;;;;20.97;33.48;100334.41;21085394;28;20028;-72
2023/03/14 19:26:43;;;;;;;0.60;0.60;;;;;;;21.00;33.17;100306.00;21083800;28;20043;-72
2023/03/14 19:36:44;;;;;;;0.88;0.70;;;;;;;21.00;32.99;100299.63;21083643;28;20040;-72
2023/03/14 19:46:45;;;;;;;0.63;0.63;;;;;;;20.63;32.92;100259.44;21081568;28;20399;-72
2023/03/14 19:56:48;;;;;;;0.47;0.47;;;;;;;20.93;32.64;100321.38;21082459;28;20031;-71
2023/03/14 20:06:52;;;;;;;0.50;0.50;;;;;;;20.94;32.99;100323.06;21081008;28;20043;-71
2023/03/14 20:16:53;;;;;;;0.50;0.50;;;;;;;20.91;33.00;100359.81;21079676;28;20032;-72
2023/03/14 20:26:54;;;;;;;0.82;0.60;;;;;;;20.85;32.91;100359.03;21080615;28;20036;-71
2023/03/14 20:36:56;;;;;;;0.95;0.73;;;;;;;20.79;32.64;100374.91;21077713;28;20040;-71
2023/03/14 20:46:59;;;;;;;0.68;0.65;;;;;;;20.75;32.81;100373.84;21076272;28;20043;-71
2023/03/14 20:57:00;;;;;;;1.30;0.70;;;;;;;20.72;32.72;100399.47;21077111;28;20036;-71
2023/03/14 21:07:02;;;;;;;0.75;0.75;;;;;;;20.66;32.80;100411.75;21077066;28;20062;-71
2023/03/14 21:17:03;;;;;;;1.08;0.77;;;;;;;20.63;32.97;100431.81;21075346;28;20036;-71
2023/03/14 21:27:05;;;;;;;0.50;0.50;;;;;;;20.48;33.01;100426.34;21074933;28;20047;-72
2023/03/14 21:37:06;;;;;;;1.02;0.60;;;;;;;20.25;33.05;100400.97;21075545;28;20040;-72
2023/03/14 21:47:09;;;;;;;0.98;0.70;;;;;;;20.22;33.25;100407.09;21071289;28;20052;-72
2023/03/14 21:57:13;;;;;;;1.90;0.57;;;;;;;20.42;33.12;100449.72;21070329;28;20097;-71
2023/03/14 22:07:15;;;;;;;0.60;0.60;;;;;;;20.46;32.88;100456.38;21070284;28;20447;-72
2023/03/14 22:17:19;;;;;;;0.40;0.40;;;;;;;20.43;33.00;100459.72;21062103;28;20048;-72
2023/03/14 22:27:20;;;;;;;0.88;0.70;;;;;;;20.43;33.17;100476.41;21038153;28;20048;-71
2023/03/14 22:37:24;;;;;;;0.63;0.60;;;;;;;20.17;33.22;100453.53;20973044;28;1930491;-72
2023/03/14 22:47:26;;;;;;;1.00;0.70;;;;;;;20.41;32.78;100520.34;21000738;28;20479;-71
2023/03/14 22:57:27;;;;;;;0.70;0.70;;;;;;;20.37;33.10;100541.47;21002663;28;20040;-70
2023/03/14 23:07:29;;;;;;;0.77;0.75;;;;;;;20.33;32.98;100551.50;21000926;28;20091;-71
2023/03/14 23:17:30;;;;;;;0.70;0.60;;;;;;;20.33;33.16;100559.84;21066373;28;20032;-71
2023/03/14 23:27:31;;;;;;;0.70;0.70;;;;;;;20.28;32.71;100561.53;21080357;28;20044;-71
2023/03/14 23:37:33;;;;;;;0.63;0.60;;;;;;;20.28;33.11;100586.53;21078568;28;20036;-71
2023/03/14 23:47:34;;;;;;;0.50;0.50;;;;;;;20.12;32.73;100561.91;21080792;28;20047;-72
2023/03/14 23:57:36;;;;;;;0.73;0.60;;;;;;;20.00;32.98;100565.81;21082022;28;20048;-71
